createdAt,value
2022-09-07T00:00:58.211Z,18.43
2022-09-07T00:03:45.969Z,18.64
2022-09-07T00:06:34.632Z,18.64
2022-09-07T00:09:22.350Z,18.67
2022-09-07T00:12:10.145Z,18.66
2022-09-07T00:14:57.880Z,18.72
2022-09-07T00:17:45.694Z,18.69
2022-09-07T00:20:33.594Z,18.72
2022-09-07T00:23:21.333Z,18.74
2022-09-07T00:26:19.463Z,18.75
2022-09-07T00:29:07.933Z,18.66
2022-09-07T00:31:55.737Z,18.64
2022-09-07T00:34:43.557Z,18.69
2022-09-07T00:37:31.336Z,18.77
2022-09-07T00:40:19.117Z,18.81
2022-09-07T00:43:07.462Z,18.84
2022-09-07T00:45:55.467Z,18.90
2022-09-07T00:49:08.081Z,18.77
2022-09-07T00:52:01.335Z,18.98
2022-09-07T00:54:55.050Z,19.00
2022-09-07T00:57:49.181Z,19.03
2022-09-07T01:00:37.237Z,18.95
2022-09-07T01:03:31.033Z,18.98
2022-09-07T01:06:39.655Z,19.02
2022-09-07T01:09:28.232Z,18.92
2022-09-07T01:12:16.082Z,18.91
2022-09-07T01:15:04.718Z,18.92
2022-09-07T01:18:12.980Z,18.78
2022-09-07T01:21:22.081Z,18.67
2022-09-07T01:24:55.673Z,18.49
2022-09-07T01:28:11.080Z,18.51
2022-09-07T01:31:13.818Z,18.19
2022-09-07T01:34:25.873Z,17.89
2022-09-07T01:37:24.393Z,18.00
2022-09-07T01:40:41.015Z,18.04
2022-09-07T01:43:46.246Z,18.08
2022-09-07T01:46:49.318Z,17.94
2022-09-07T01:49:51.423Z,17.80
2022-09-07T01:53:09.725Z,17.74
2022-09-07T01:56:28.053Z,17.64
2022-09-07T01:59:35.915Z,17.65
2022-09-07T02:02:35.552Z,17.65
2022-09-07T02:05:40.703Z,17.65
2022-09-07T02:08:37.853Z,17.71
2022-09-07T02:11:43.854Z,17.55
2022-09-07T02:14:37.814Z,17.76
2022-09-07T02:17:33.975Z,17.70
2022-09-07T02:20:33.517Z,17.69
2022-09-07T02:23:26.534Z,17.62
2022-09-07T02:26:22.695Z,17.44
2022-09-07T02:29:10.481Z,17.29
2022-09-07T02:31:58.442Z,17.46
2022-09-07T02:34:46.296Z,17.46
2022-09-07T02:37:35.464Z,17.36
2022-09-07T02:40:23.433Z,17.40
2022-09-07T02:43:12.017Z,17.35
2022-09-07T02:47:06.046Z,17.35
2022-09-07T02:50:30.600Z,17.23
2022-09-07T02:53:52.667Z,17.13
2022-09-07T02:57:13.592Z,17.23
2022-09-07T03:00:13.447Z,17.30
2022-09-07T03:03:39.194Z,17.27
2022-09-07T03:06:35.183Z,17.34
2022-09-07T03:09:28.628Z,17.39
2022-09-07T03:12:17.400Z,17.35
2022-09-07T03:15:05.877Z,17.23
2022-09-07T03:17:54.196Z,17.22
2022-09-07T03:20:42.002Z,17.10
2022-09-07T03:23:29.776Z,17.28
2022-09-07T03:26:25.101Z,17.24
2022-09-07T03:29:13.308Z,16.96
2022-09-07T03:32:01.090Z,16.89
2022-09-07T03:34:48.855Z,16.89
2022-09-07T03:37:38.357Z,16.83
2022-09-07T03:40:26.194Z,16.80
2022-09-07T03:43:14.020Z,16.71
2022-09-07T03:46:05.645Z,16.78
2022-09-07T03:48:53.813Z,16.86
2022-09-07T03:51:41.630Z,16.96
2022-09-07T03:54:29.506Z,17.07
2022-09-07T03:57:17.305Z,17.12
2022-09-07T04:00:06.219Z,17.16
2022-09-07T04:02:54.089Z,17.09
2022-09-07T04:05:41.901Z,17.16
2022-09-07T04:08:32.386Z,17.25
2022-09-07T04:11:20.283Z,17.18
2022-09-07T04:14:09.721Z,17.21
2022-09-07T04:16:57.576Z,17.16
2022-09-07T04:19:45.384Z,17.10
2022-09-07T04:22:33.135Z,17.12
2022-09-07T04:25:20.938Z,17.07
2022-09-07T04:28:08.856Z,17.10
2022-09-07T04:31:01.999Z,17.03
2022-09-07T04:33:51.310Z,16.97
2022-09-07T04:36:39.197Z,16.89
2022-09-07T04:39:27.024Z,16.88
2022-09-07T04:42:14.867Z,16.81
2022-09-07T04:45:03.573Z,16.88
2022-09-07T04:47:51.755Z,16.92
2022-09-07T04:50:39.485Z,16.85
2022-09-07T04:53:27.270Z,16.97
2022-09-07T04:56:17.129Z,16.90
2022-09-07T04:59:04.994Z,16.95
2022-09-07T05:01:53.003Z,16.98
2022-09-07T05:04:40.769Z,16.92
2022-09-07T05:07:28.536Z,17.03
2022-09-07T05:10:16.354Z,16.96
2022-09-07T05:13:04.209Z,16.99
2022-09-07T05:15:51.980Z,17.06
2022-09-07T05:18:39.863Z,17.14
2022-09-07T05:21:33.442Z,17.07
2022-09-07T05:24:22.996Z,17.39
2022-09-07T05:27:11.168Z,17.31
2022-09-07T05:32:52.763Z,17.84
2022-09-07T05:35:40.596Z,17.85
2022-09-07T05:38:29.092Z,17.89
2022-09-07T05:41:19.814Z,18.05
2022-09-07T05:47:15.568Z,17.96
2022-09-07T05:50:04.533Z,17.96
2022-09-07T05:52:52.787Z,18.25
2022-09-07T05:55:40.636Z,18.32
2022-09-07T05:58:29.283Z,18.60
2022-09-07T06:01:18.237Z,18.72
2022-09-07T06:04:06.366Z,18.98
2022-09-07T06:13:09.543Z,19.50
2022-09-07T06:16:05.373Z,19.69
2022-09-07T06:18:53.128Z,19.93
2022-09-07T06:21:40.942Z,20.09
2022-09-07T06:24:28.710Z,20.22
2022-09-07T06:27:16.466Z,20.38
2022-09-07T06:30:05.184Z,20.46
2022-09-07T06:32:52.938Z,20.65
2022-09-07T06:35:40.706Z,20.83
2022-09-07T06:38:38.496Z,20.96
2022-09-07T06:44:36.957Z,21.33
2022-09-07T06:47:24.732Z,21.44
2022-09-07T06:50:13.609Z,21.36
2022-09-07T06:56:15.622Z,21.54
2022-09-07T06:59:03.417Z,21.69
2022-09-07T07:01:51.222Z,21.67
2022-09-07T07:04:41.138Z,22.09
2022-09-07T07:07:29.510Z,22.30
2022-09-07T07:10:22.208Z,22.39
2022-09-07T07:13:12.242Z,22.32
2022-09-07T07:16:12.392Z,22.60
2022-09-07T07:19:00.255Z,22.64
2022-09-07T07:22:10.829Z,22.84
2022-09-07T07:24:55.729Z,23.10
2022-09-07T07:27:45.823Z,23.01
2022-09-07T07:30:38.555Z,23.11
2022-09-07T07:33:34.539Z,23.32
2022-09-07T07:36:25.667Z,23.13
2022-09-07T07:42:26.365Z,22.47
2022-09-07T07:48:25.262Z,22.47
2022-09-07T07:51:15.364Z,22.84
2022-09-07T07:54:03.111Z,23.07
2022-09-07T07:56:50.801Z,23.57
2022-09-07T07:59:39.297Z,23.86
2022-09-07T08:02:27.130Z,24.44
2022-09-07T08:05:17.005Z,24.72
2022-09-07T08:08:04.744Z,24.89
2022-09-07T08:10:53.040Z,25.33
2022-09-07T08:13:42.818Z,25.74
2022-09-07T08:16:30.784Z,25.94
2022-09-07T08:19:18.520Z,26.59
2022-09-07T08:22:07.794Z,26.50
2022-09-07T08:24:58.210Z,26.93
2022-09-07T08:27:46.038Z,27.14
2022-09-07T08:30:33.883Z,26.85
2022-09-07T08:33:23.076Z,27.19
2022-09-07T08:36:17.920Z,27.51
2022-09-07T08:39:08.241Z,28.08
2022-09-07T08:42:31.219Z,27.45
2022-09-07T08:45:32.375Z,28.07
2022-09-07T08:48:31.116Z,28.32
2022-09-07T08:51:43.433Z,28.28
2022-09-07T08:54:31.207Z,28.56
2022-09-07T08:57:30.296Z,28.99
2022-09-07T09:00:23.127Z,29.72
2022-09-07T09:03:32.335Z,30.49
2022-09-07T09:06:47.703Z,31.26
2022-09-07T09:10:30.112Z,32.40
2022-09-07T09:13:57.590Z,32.68
2022-09-07T09:16:55.499Z,33.19
2022-09-07T09:20:01.565Z,33.67
2022-09-07T09:23:13.173Z,33.47
2022-09-07T09:26:18.246Z,34.05
2022-09-07T09:29:21.845Z,35.04
2022-09-07T09:32:39.637Z,35.73
2022-09-07T09:35:44.889Z,35.97
2022-09-07T09:38:43.596Z,34.82
2022-09-07T09:41:41.275Z,34.99
2022-09-07T09:44:37.503Z,33.64
2022-09-07T09:47:32.578Z,32.13
2022-09-07T09:53:57.242Z,29.91
2022-09-07T09:56:47.316Z,29.01
2022-09-07T10:06:25.994Z,28.06
2022-09-07T10:09:22.512Z,28.38
2022-09-07T10:12:35.181Z,27.94
2022-09-07T10:15:40.587Z,27.84
2022-09-07T10:18:54.198Z,27.71
2022-09-07T10:22:00.482Z,27.53
2022-09-07T10:24:51.338Z,27.48
2022-09-07T10:27:46.771Z,26.99
2022-09-07T10:30:49.650Z,26.76
2022-09-07T10:34:27.233Z,26.37
2022-09-07T10:37:36.390Z,26.60
2022-09-07T10:40:40.630Z,26.44
2022-09-07T10:43:46.109Z,26.30
2022-09-07T10:47:00.260Z,26.11
2022-09-07T10:53:42.135Z,26.18
2022-09-07T10:56:41.824Z,25.96
2022-09-07T11:00:08.251Z,25.90
2022-09-07T11:03:47.162Z,25.89
2022-09-07T11:06:41.397Z,26.19
2022-09-07T11:09:42.793Z,26.15
2022-09-07T11:12:39.327Z,25.93
2022-09-07T11:15:33.287Z,25.93
2022-09-07T11:18:27.379Z,25.94
2022-09-07T11:21:56.206Z,26.03
2022-09-07T11:28:38.233Z,26.09
2022-09-07T11:31:45.610Z,26.23
2022-09-07T11:34:45.996Z,26.24
2022-09-07T11:37:43.638Z,26.34
2022-09-07T11:40:36.041Z,26.20
2022-09-07T11:43:41.314Z,26.37
2022-09-07T11:46:41.819Z,26.25
2022-09-07T11:49:30.745Z,26.41
2022-09-07T11:52:42.330Z,26.38
2022-09-07T11:55:38.690Z,26.39
2022-09-07T11:59:09.267Z,26.42
2022-09-07T12:02:32.335Z,26.42
2022-09-07T12:05:55.351Z,26.49
2022-09-07T12:09:14.262Z,26.50
2022-09-07T12:12:44.115Z,26.43
2022-09-07T12:15:50.119Z,26.35
2022-09-07T12:18:46.630Z,26.42
2022-09-07T12:21:44.112Z,26.37
2022-09-07T12:24:46.766Z,26.21
2022-09-07T12:27:34.341Z,26.27
2022-09-07T12:30:22.053Z,26.38
2022-09-07T12:33:37.397Z,26.54
2022-09-07T12:36:28.212Z,26.57
2022-09-07T12:39:30.317Z,26.58
2022-09-07T12:42:36.721Z,26.50
2022-09-07T12:45:30.949Z,26.50
2022-09-07T12:48:29.523Z,26.55
2022-09-07T12:55:29.310Z,27.11
2022-09-07T12:58:30.519Z,27.37
2022-09-07T13:01:33.359Z,27.47
2022-09-07T13:04:58.162Z,27.42
2022-09-07T13:08:09.666Z,27.40
2022-09-07T13:11:15.271Z,27.00
2022-09-07T13:14:16.902Z,25.79
2022-09-07T13:17:36.172Z,24.23
2022-09-07T13:20:30.280Z,23.18
2022-09-07T13:23:22.160Z,22.45
2022-09-07T13:26:12.773Z,21.67
2022-09-07T13:29:12.944Z,21.31
2022-09-07T13:32:19.958Z,21.02
2022-09-07T13:35:21.439Z,21.11
2022-09-07T13:38:13.718Z,21.11
2022-09-07T13:41:14.927Z,21.38
2022-09-07T13:44:04.296Z,21.65
2022-09-07T13:47:22.691Z,22.13
2022-09-07T13:53:53.323Z,22.94
2022-09-07T13:57:21.259Z,23.36
2022-09-07T14:00:16.785Z,23.60
2022-09-07T14:03:07.411Z,23.84
2022-09-07T14:06:25.463Z,24.07
2022-09-07T14:09:21.884Z,24.19
2022-09-07T14:12:16.577Z,24.22
2022-09-07T14:15:41.020Z,24.28
2022-09-07T14:18:32.940Z,24.37
2022-09-07T14:21:20.872Z,24.51
2022-09-07T14:24:24.655Z,24.72
2022-09-07T14:27:37.090Z,24.95
2022-09-07T14:30:36.427Z,25.11
2022-09-07T14:33:24.320Z,25.17
2022-09-07T14:36:29.812Z,25.35
2022-09-07T14:39:23.890Z,25.56
2022-09-07T14:42:22.134Z,25.75
2022-09-07T14:45:26.496Z,25.89
2022-09-07T14:48:14.766Z,26.00
2022-09-07T14:51:29.061Z,26.12
2022-09-07T14:54:38.508Z,26.21
2022-09-07T14:57:32.246Z,26.16
2022-09-07T15:00:45.165Z,26.06
2022-09-07T15:03:53.042Z,26.11
2022-09-07T15:07:02.293Z,26.04
2022-09-07T15:09:50.744Z,26.08
2022-09-07T15:12:43.009Z,26.01
2022-09-07T15:15:33.776Z,26.16
2022-09-07T15:18:59.059Z,26.09
2022-09-07T15:21:46.788Z,26.32
2022-09-07T15:24:35.606Z,26.42
2022-09-07T15:27:30.270Z,26.50
2022-09-07T15:30:20.317Z,26.60
2022-09-07T15:33:08.938Z,26.57
2022-09-07T15:35:56.700Z,26.53
2022-09-07T15:39:00.280Z,26.44
2022-09-07T15:41:48.535Z,26.42
2022-09-07T15:44:36.206Z,26.48
2022-09-07T15:47:43.524Z,26.40
2022-09-07T15:50:41.984Z,26.49
2022-09-07T15:56:37.822Z,26.41
2022-09-07T15:59:25.908Z,26.39
2022-09-07T16:05:23.276Z,26.29
2022-09-07T16:08:32.742Z,26.48
2022-09-07T16:11:24.436Z,26.53
2022-09-07T16:14:13.619Z,26.23
2022-09-07T16:20:10.085Z,26.07
2022-09-07T16:23:13.892Z,25.94
2022-09-07T16:26:04.401Z,25.96
2022-09-07T16:28:53.632Z,25.75
2022-09-07T16:32:44.055Z,25.80
2022-09-07T16:34:49.269Z,25.73
2022-09-07T16:37:37.253Z,25.65
2022-09-07T16:40:28.845Z,25.58
2022-09-07T16:43:21.626Z,25.41
2022-09-07T16:46:17.102Z,25.32
2022-09-07T16:49:07.096Z,25.24
2022-09-07T16:51:54.955Z,25.15
2022-09-07T16:54:42.717Z,24.98
2022-09-07T16:58:35.284Z,24.97
2022-09-07T17:00:40.351Z,24.77
2022-09-07T17:03:28.427Z,24.69
2022-09-07T17:06:18.218Z,24.66
2022-09-07T17:09:06.439Z,24.48
2022-09-07T17:11:54.153Z,24.25
2022-09-07T17:14:42.003Z,24.33
2022-09-07T17:17:29.818Z,24.22
2022-09-07T17:20:17.989Z,24.16
2022-09-07T17:23:05.763Z,23.99
2022-09-07T17:26:02.198Z,23.97
2022-09-07T17:28:52.113Z,23.84
2022-09-07T17:34:47.581Z,23.78
2022-09-07T17:37:35.360Z,23.67
2022-09-07T17:40:24.399Z,23.60
2022-09-07T17:46:23.677Z,23.52
2022-09-07T17:49:16.384Z,23.42
2022-09-07T17:52:04.664Z,23.21
2022-09-07T17:54:55.332Z,23.35
2022-09-07T17:57:43.123Z,23.16
2022-09-07T18:00:31.017Z,23.22
2022-09-07T18:03:18.963Z,23.08
2022-09-07T18:06:07.397Z,22.99
2022-09-07T18:08:55.154Z,22.94
2022-09-07T18:11:48.023Z,22.91
2022-09-07T18:14:36.614Z,22.83
2022-09-07T18:17:24.478Z,22.82
2022-09-07T18:20:12.347Z,22.77
2022-09-07T18:23:01.127Z,22.72
2022-09-07T18:25:58.580Z,22.62
2022-09-07T18:29:19.209Z,22.65
2022-09-07T18:32:08.293Z,22.64
2022-09-07T18:34:56.897Z,22.49
2022-09-07T18:37:44.635Z,22.50
2022-09-07T18:40:36.518Z,22.41
2022-09-07T18:43:26.174Z,22.41
2022-09-07T18:46:21.696Z,22.40
2022-09-07T18:49:09.554Z,22.37
2022-09-07T18:55:07.843Z,22.23
2022-09-07T18:57:55.876Z,22.23
2022-09-07T19:00:45.945Z,22.27
2022-09-07T19:03:34.594Z,22.23
2022-09-07T19:06:24.453Z,22.26
2022-09-07T19:09:12.630Z,22.16
2022-09-07T19:12:00.513Z,22.02
2022-09-07T19:14:50.726Z,22.07
2022-09-07T19:17:38.502Z,21.62
2022-09-07T19:20:28.686Z,21.59
2022-09-07T19:23:16.445Z,21.69
2022-09-07T19:26:06.869Z,21.62
2022-09-07T19:28:57.827Z,21.23
2022-09-07T19:32:03.997Z,21.18
2022-09-07T19:34:54.575Z,21.18
2022-09-07T19:37:42.341Z,21.16
2022-09-07T19:40:30.102Z,21.14
2022-09-07T19:43:17.817Z,20.77
2022-09-07T19:46:05.639Z,20.68
2022-09-07T19:48:53.392Z,20.49
2022-09-07T19:51:42.402Z,20.35
2022-09-07T19:54:30.634Z,20.13
2022-09-07T19:57:18.525Z,20.27
2022-09-07T20:00:07.068Z,20.14
2022-09-07T20:02:54.960Z,20.11
2022-09-07T20:05:42.705Z,20.20
2022-09-07T20:08:30.475Z,20.23
2022-09-07T20:11:22.163Z,20.28
2022-09-07T20:14:10.448Z,20.30
2022-09-07T20:16:58.294Z,20.23
2022-09-07T20:19:46.015Z,20.14
2022-09-07T20:22:33.789Z,20.18
2022-09-07T20:25:21.812Z,20.11
2022-09-07T20:28:09.599Z,20.08
2022-09-07T20:30:57.472Z,20.09
2022-09-07T20:33:46.895Z,20.04
2022-09-07T20:36:34.775Z,19.97
2022-09-07T20:39:22.813Z,19.80
2022-09-07T20:42:10.682Z,19.89
2022-09-07T20:44:58.409Z,19.76
2022-09-07T20:47:46.238Z,19.65
2022-09-07T20:50:34.035Z,19.62
2022-09-07T20:53:21.820Z,19.57
2022-09-07T20:56:18.704Z,19.40
2022-09-07T20:59:06.819Z,19.60
2022-09-07T21:01:54.688Z,19.44
2022-09-07T21:04:43.362Z,19.47
2022-09-07T21:07:31.229Z,19.39
2022-09-07T21:10:19.052Z,19.32
2022-09-07T21:13:09.754Z,19.34
2022-09-07T21:15:57.547Z,19.46
2022-09-07T21:18:45.336Z,19.34
2022-09-07T21:21:40.060Z,19.40
2022-09-07T21:24:30.747Z,19.34
2022-09-07T21:27:18.549Z,19.26
2022-09-07T21:30:07.314Z,19.27
2022-09-07T21:32:55.467Z,19.28
2022-09-07T21:35:45.448Z,19.35
2022-09-07T21:38:35.211Z,19.32
2022-09-07T21:41:25.021Z,19.32
2022-09-07T21:44:14.752Z,19.10
2022-09-07T21:47:02.525Z,18.98
2022-09-07T21:49:50.992Z,18.90
2022-09-07T21:52:38.935Z,19.00
2022-09-07T21:55:26.778Z,18.98
2022-09-07T21:58:15.241Z,18.96
2022-09-07T22:01:18.366Z,18.92
2022-09-07T22:04:07.031Z,18.75
2022-09-07T22:06:54.928Z,18.69
2022-09-07T22:09:42.843Z,18.71
2022-09-07T22:12:31.034Z,18.59
2022-09-07T22:15:18.764Z,18.46
2022-09-07T22:18:15.934Z,18.47
2022-09-07T22:21:10.578Z,18.32
2022-09-07T22:24:02.043Z,18.23
2022-09-07T22:26:49.874Z,18.20
2022-09-07T22:29:37.606Z,18.07
2022-09-07T22:32:25.415Z,18.06
2022-09-07T22:35:14.061Z,18.04
2022-09-07T22:38:01.953Z,18.01
2022-09-07T22:40:49.705Z,17.84
2022-09-07T22:43:38.134Z,17.91
2022-09-07T22:46:29.803Z,17.71
2022-09-07T22:49:17.765Z,17.57
2022-09-07T22:52:05.750Z,17.47
2022-09-07T22:54:53.486Z,17.52
2022-09-07T22:57:41.219Z,17.31
2022-09-07T23:00:29.883Z,17.44
2022-09-07T23:03:18.425Z,17.49
2022-09-07T23:06:06.334Z,17.40
2022-09-07T23:08:56.597Z,17.55
2022-09-07T23:11:46.538Z,17.57
2022-09-07T23:14:34.418Z,17.61
2022-09-07T23:17:22.170Z,17.59
2022-09-07T23:20:10.226Z,17.48
2022-09-07T23:22:57.965Z,17.57
2022-09-07T23:25:45.658Z,17.56
2022-09-07T23:28:33.903Z,17.57
2022-09-07T23:31:22.653Z,17.70
2022-09-07T23:34:11.161Z,17.66
2022-09-07T23:36:58.937Z,17.68
2022-09-07T23:39:47.435Z,17.70
2022-09-07T23:42:35.213Z,17.81
2022-09-07T23:45:22.980Z,17.73
2022-09-07T23:48:10.726Z,17.69
2022-09-07T23:50:58.560Z,17.61
2022-09-07T23:53:46.518Z,17.58
2022-09-07T23:56:36.703Z,17.49
2022-09-07T23:59:24.461Z,17.41
